Time;durP1;ratioP1;P1;durP2;ratioP2;P2;SDS_P1;SDS_P2;PMS_P1;PMS_P2;Temp;Humidity;BMP_temperature;BMP_pressure;BME280_temperature;BME280_humidity;BME280_pressure;Samples;Min_cycle;Max_cycle;Signal;HPM_P1;HPM_P2
2022/01/18 00:00:31;411647.00;1.37;709.83;0.00;0.00;0.62;;;;;10.00;1.00;;;;;;2248034;61;1112;-88
2022/01/18 00:02:58;122505.00;0.41;212.40;0.00;0.00;0.62;;;;;10.20;1.00;;;;;;2248103;61;1386;-88
2022/01/18 00:05:27;379124.00;1.26;653.92;0.00;0.00;0.62;;;;;10.20;1.00;;;;;;2247934;61;1025;-89
2022/01/18 00:07:55;326976.00;1.09;564.29;0.00;0.00;0.62;;;;;10.10;1.00;;;;;;2237828;61;1920;-89
2022/01/18 00:10:25;449584.00;1.50;775.07;0.00;0.00;0.62;;;;;10.10;1.00;;;;;;2244393;61;975;-89
2022/01/18 00:15:42;385602.00;1.29;665.05;0.00;0.00;0.62;;;;;9.70;1.00;;;;;;2247958;61;1027;-89
2022/01/18 00:18:13;414664.00;1.38;715.02;0.00;0.00;0.62;;;;;10.20;1.00;;;;;;2248523;61;1236;-89
2022/01/18 00:20:53;499365.00;1.66;860.73;0.00;0.00;0.62;;;;;10.70;1.00;;;;;;2248606;61;1037;-89
2022/01/18 00:23:21;403319.00;1.34;695.51;0.00;0.00;0.62;;;;;10.80;1.00;;;;;;2248615;61;1453;-89
2022/01/18 00:25:52;672269.00;2.24;1159.18;0.00;0.00;0.62;;;;;10.40;1.00;;;;;;2248653;61;1014;-89
2022/01/18 00:28:20;459218.00;1.53;791.64;0.00;0.00;0.62;;;;;10.10;1.00;;;;;;2248778;61;1912;-88
2022/01/18 00:33:43;612418.00;2.04;1055.67;9280.00;0.03;16.70;;;;;9.40;1.00;;;;;;2243989;61;1339;-89
2022/01/18 00:36:23;342493.00;1.14;590.96;0.00;0.00;0.62;;;;;9.80;1.00;;;;;;2244270;61;1069;-88
2022/01/18 00:38:50;186467.00;0.62;322.63;0.00;0.00;0.62;;;;;10.00;1.00;;;;;;2237643;61;958;-89
2022/01/18 00:41:19;582298.00;1.94;1003.66;0.00;0.00;0.62;;;;;10.30;1.00;;;;;;2244287;61;1089;-89
2022/01/18 00:43:48;464189.00;1.55;800.19;37037.00;0.12;64.76;;;;;10.60;1.00;;;;;;2244234;61;1366;-89
2022/01/18 00:46:16;293311.00;0.98;506.42;0.00;0.00;0.62;;;;;10.80;1.00;;;;;;2244305;61;1079;-88
2022/01/18 00:48:44;733455.00;2.44;1265.30;0.00;0.00;0.62;;;;;10.80;1.00;;;;;;2244103;61;1991;-89
2022/01/18 00:51:14;375675.00;1.25;647.99;0.00;0.00;0.62;;;;;10.90;1.00;;;;;;2244194;61;1077;-90
2022/01/18 00:53:44;515802.00;1.72;889.03;0.00;0.00;0.62;;;;;11.30;1.00;;;;;;2244105;61;1339;-87
2022/01/18 00:56:21;427359.00;1.42;736.84;0.00;0.00;0.62;;;;;11.50;1.00;;;;;;2244279;61;1065;-91
2022/01/18 00:58:50;257585.00;0.86;445.00;0.00;0.00;0.62;;;;;11.30;1.00;;;;;;2244090;61;1580;-89
2022/01/18 01:01:21;464129.00;1.55;800.09;0.00;0.00;0.62;;;;;11.30;1.00;;;;;;2244076;61;1709;-90
2022/01/18 01:03:48;177698.00;0.59;307.53;0.00;0.00;0.62;;;;;11.20;1.00;;;;;;2241688;61;1363;-89
2022/01/18 01:06:16;314775.00;1.05;543.32;8682.00;0.03;15.67;;;;;11.10;1.00;;;;;;2241343;61;1001;-87
2022/01/18 01:08:43;321326.00;1.07;554.58;0.00;0.00;0.62;;;;;10.80;1.00;;;;;;2248545;61;2003;-88
2022/01/18 01:11:11;187669.00;0.63;324.70;0.00;0.00;0.62;;;;;10.90;1.00;;;;;;2248548;61;1072;-88
2022/01/18 01:13:43;419034.00;1.40;722.53;0.00;0.00;0.62;;;;;11.00;1.00;;;;;;2248476;61;1393;-88
2022/01/18 01:16:27;337072.00;1.12;581.64;0.00;0.00;0.62;;;;;11.10;1.00;;;;;;2248623;61;1316;-88
2022/01/18 01:19:11;459563.00;1.53;792.23;0.00;0.00;0.62;;;;;11.00;1.00;;;;;;2248442;61;1001;-88
2022/01/18 08:18:52;684737.00;2.28;1180.78;0.00;0.00;0.62;;;;;8.50;1.00;;;;;;2249805;61;1366;-89
2022/01/18 08:21:19;662870.00;2.21;1142.91;99862.00;0.33;173.33;;;;;8.50;1.00;;;;;;2248432;61;1080;-88
2022/01/18 08:23:46;289984.00;0.97;500.70;0.00;0.00;0.62;;;;;8.10;1.00;;;;;;2248569;61;1349;-86
2022/01/18 08:26:14;516692.00;1.72;890.57;0.00;0.00;0.62;;;;;8.00;1.00;;;;;;2248437;61;1144;-86
2022/01/18 08:28:40;566639.00;1.89;976.65;86773.00;0.29;150.74;;;;;8.10;1.00;;;;;;2248413;61;1916;-85
2022/01/18 08:31:07;507893.00;1.69;875.41;34661.00;0.12;60.65;;;;;7.40;1.00;;;;;;2248487;61;1070;-89
2022/01/18 08:33:35;1255561.00;4.19;2191.00;50410.00;0.17;87.90;;;;;7.10;1.00;;;;;;2248411;61;1702;-90
2022/01/18 08:36:07;711398.00;2.37;1227.01;119706.00;0.40;207.58;;;;;7.00;1.80;;;;;;2248228;61;1636;-90
2022/01/18 08:38:37;319273.00;1.06;551.05;0.00;0.00;0.62;;;;;6.90;2.30;;;;;;2248544;61;986;-85
2022/01/18 08:41:05;533647.00;1.78;919.78;18304.00;0.06;32.33;;;;;7.40;1.80;;;;;;2248427;61;1580;-86
2022/01/18 08:43:32;489290.00;1.63;843.39;87523.00;0.29;152.03;;;;;8.10;1.00;;;;;;2248400;61;1257;-86
2022/01/18 08:45:59;950917.00;3.17;1645.73;152089.00;0.51;263.41;;;;;8.40;1.00;;;;;;2248408;61;1696;-86
2022/01/18 08:48:26;1000194.00;3.33;1732.82;14694.00;0.05;26.08;;;;;8.60;1.00;;;;;;2248435;61;1985;-86
2022/01/18 08:50:53;563100.00;1.88;970.55;88211.00;0.29;153.22;;;;;8.60;1.00;;;;;;2248160;61;1450;-86
2022/01/18 08:53:22;495191.00;1.65;853.54;0.00;0.00;0.62;;;;;8.90;1.00;;;;;;2248472;61;1246;-85
2022/01/18 08:55:49;410553.00;1.37;707.95;0.00;0.00;0.62;;;;;8.70;1.00;;;;;;2248559;61;1073;-86
2022/01/18 09:00:44;557493.00;1.86;960.88;0.00;0.00;0.62;;;;;9.20;1.00;;;;;;2253756;61;1412;-85
2022/01/18 09:03:11;117621976.00;392.07;65916808.00;0.00;0.00;0.62;;;;;9.20;1.00;;;;;;2252418;61;1332;-87
2022/01/18 09:15:43;692427.00;2.31;1194.11;17967.00;0.06;31.75;;;;;9.00;1.00;;;;;;2253984;61;1423;-91
2022/01/18 09:18:11;315728.00;1.05;544.96;0.00;0.00;0.62;;;;;8.90;1.00;;;;;;2248707;61;1064;-90
2022/01/18 09:28:06;1382836.00;4.61;2424.53;79478.00;0.26;138.14;;;;;8.40;1.00;;;;;;2249881;61;1967;-85
2022/01/18 09:30:35;274003.00;0.91;473.23;0.00;0.00;0.62;;;;;8.50;1.00;;;;;;2248303;61;1619;-86
2022/01/18 09:33:06;558542.00;1.86;962.69;0.00;0.00;0.62;;;;;8.50;1.00;;;;;;2248281;61;1769;-86
2022/01/18 09:50:31;805164.00;2.68;1390.13;0.00;0.00;0.62;;;;;9.00;1.00;;;;;;2250035;61;2009;-92
2022/01/18 09:52:59;568794.00;1.90;980.37;58043.00;0.19;101.09;;;;;8.90;1.00;;;;;;2241321;61;1252;-92
2022/01/18 09:58:12;773683.00;2.58;1335.26;0.00;0.00;0.62;;;;;9.00;1.00;;;;;;2250125;61;1403;-90
2022/01/18 10:03:42;880442.00;2.93;1521.80;490.00;0.00;1.47;;;;;8.60;1.00;;;;;;2251001;61;1325;-91
2022/01/18 10:06:11;492546.00;1.64;848.99;0.00;0.00;0.62;;;;;8.60;1.00;;;;;;2241390;61;1064;-90
2022/01/18 10:08:40;902902.00;3.01;1561.22;119886.00;0.40;207.89;;;;;8.60;1.00;;;;;;2248274;61;1982;-91
2022/01/18 10:11:14;319400.00;1.06;551.27;0.00;0.00;0.62;;;;;8.40;1.00;;;;;;2241176;61;1312;-89
2022/01/18 10:13:42;792907.00;2.64;1368.76;74377.00;0.25;129.32;;;;;8.10;1.00;;;;;;2248193;61;1385;-91
2022/01/18 10:18:45;743685.00;2.48;1283.08;0.00;0.00;0.62;;;;;8.00;1.00;;;;;;2250014;61;1386;-90
2022/01/18 10:21:15;590236.00;1.97;1017.36;0.00;0.00;0.62;;;;;7.90;1.00;;;;;;2248258;61;991;-91
2022/01/18 10:23:49;402438.00;1.34;694.00;0.00;0.00;0.62;;;;;7.80;1.00;;;;;;2248094;61;1299;-90
2022/01/18 10:28:45;730979.00;2.44;1261.00;0.00;0.00;0.62;;;;;8.10;1.00;;;;;;2253710;61;1987;-89
2022/01/18 10:31:33;1151630.00;3.84;2003.01;62304.00;0.21;108.46;;;;;8.50;1.00;;;;;;2244986;61;961;-92
2022/01/18 10:34:25;392134.00;1.31;676.28;0.00;0.00;0.62;;;;;8.70;1.00;;;;;;2243614;61;1464;-90
2022/01/18 10:37:00;744850.00;2.48;1285.10;62525.00;0.21;108.84;;;;;8.30;1.00;;;;;;2239700;62;985;-90
2022/01/18 10:41:58;1332087.00;4.44;2330.95;81051.00;0.27;140.85;;;;;8.00;1.00;;;;;;2249841;61;1407;-92
2022/01/18 10:44:25;634733.00;2.12;1094.23;0.00;0.00;0.62;;;;;8.40;1.00;;;;;;2248092;61;1374;-90
2022/01/18 10:46:54;657120.00;2.19;1132.96;0.00;0.00;0.62;;;;;8.20;1.00;;;;;;2239583;62;1044;-90
2022/01/18 10:49:30;583633.00;1.95;1005.97;65508.00;0.22;114.00;;;;;8.20;1.00;;;;;;2239618;62;1912;-89
2022/01/18 10:52:05;581547.00;1.94;1002.37;0.00;0.00;0.62;;;;;8.20;1.00;;;;;;2239693;62;1024;-91
2022/01/18 10:54:44;711025.00;2.37;1226.36;41944.00;0.14;73.25;;;;;8.00;1.00;;;;;;2235861;62;999;-90
2022/01/18 10:57:14;641682.00;2.14;1106.25;0.00;0.00;0.62;;;;;8.10;1.00;;;;;;2235331;62;1109;-92
2022/01/18 10:59:43;686383.00;2.29;1183.63;14382.00;0.05;25.54;;;;;8.60;1.00;;;;;;2235784;62;945;-90
2022/01/18 11:02:15;453902.00;1.51;782.49;0.00;0.00;0.62;;;;;8.50;1.00;;;;;;2235736;62;1255;-90
2022/01/18 11:04:45;749351.00;2.50;1292.93;0.00;0.00;0.62;;;;;8.70;1.00;;;;;;2235593;62;1025;-91
2022/01/18 11:07:15;510740.00;1.70;880.32;0.00;0.00;0.62;;;;;8.60;1.00;;;;;;2235648;62;1121;-90
2022/01/18 11:09:42;734182.00;2.45;1266.57;0.00;0.00;0.62;;;;;8.10;1.00;;;;;;2235701;62;2003;-90
2022/01/18 11:12:11;883713.00;2.95;1527.53;0.00;0.00;0.62;;;;;8.40;1.00;;;;;;2239367;61;1641;-92
2022/01/18 11:14:40;680292.00;2.27;1173.08;0.00;0.00;0.62;;;;;8.50;1.00;;;;;;2247735;61;1627;-90
2022/01/18 11:17:09;672724.00;2.24;1159.97;0.00;0.00;0.62;;;;;8.60;1.00;;;;;;2248142;61;1720;-91
2022/01/18 11:19:38;735318.00;2.45;1268.54;0.00;0.00;0.62;;;;;8.60;1.00;;;;;;2248026;61;1265;-92
2022/01/18 11:24:40;831968.00;2.77;1436.93;0.00;0.00;0.62;;;;;8.10;1.00;;;;;;2249640;61;1412;-90
2022/01/18 11:29:36;1052464.00;3.51;1825.62;0.00;0.00;0.62;;;;;7.80;1.00;;;;;;2249894;61;1969;-90
2022/01/18 11:34:46;1055793.00;3.52;1831.54;0.00;0.00;0.62;;;;;7.50;1.00;;;;;;2249630;61;1403;-91
2022/01/18 11:37:21;911143.00;3.04;1575.70;87154.00;0.29;151.39;;;;;7.70;1.70;;;;;;2243312;61;953;-91
2022/01/18 11:39:58;702938.00;2.34;1212.33;0.00;0.00;0.62;;;;;7.60;1.00;;;;;;2239535;61;971;-91
2022/01/18 11:42:39;580130.00;1.93;999.92;0.00;0.00;0.62;;;;;7.50;1.30;;;;;;2231308;62;1388;-91
2022/01/18 11:45:31;975701.00;3.25;1689.48;10802.00;0.04;19.34;;;;;7.80;1.00;;;;;;2231639;62;1023;-90
2022/01/18 11:48:05;612591.00;2.04;1055.97;25436.00;0.08;44.68;;;;;8.00;1.00;;;;;;2227669;62;966;-91
2022/01/18 11:50:34;508706.00;1.70;876.81;0.00;0.00;0.62;;;;;7.90;1.00;;;;;;2227786;62;1978;-90
2022/01/18 11:53:24;712305.00;2.37;1228.58;0.00;0.00;0.62;;;;;7.70;1.00;;;;;;2227722;62;1654;-89
2022/01/18 11:55:54;854017.00;2.85;1475.50;78466.00;0.26;136.39;;;;;7.40;1.00;;;;;;2227477;62;1076;-89
2022/01/18 11:58:22;583562.00;1.95;1005.85;0.00;0.00;0.62;;;;;7.80;1.00;;;;;;2233302;62;1113;-88
2022/01/18 12:00:52;567162.00;1.89;977.55;0.00;0.00;0.62;;;;;8.30;1.00;;;;;;2235641;62;1081;-88
2022/01/18 12:03:23;1112302.00;3.71;1932.44;67211.00;0.22;116.94;;;;;8.20;1.00;;;;;;2235228;62;1810;-88
2022/01/18 12:05:50;345025.00;1.15;595.31;0.00;0.00;0.62;;;;;8.10;1.00;;;;;;2239761;61;1767;-89
2022/01/18 12:08:39;421807.00;1.41;727.30;49097.00;0.16;85.62;;;;;8.20;1.00;;;;;;2247967;61;1269;-88
2022/01/18 12:11:11;528354.00;1.76;910.66;0.00;0.00;0.62;;;;;8.40;1.00;;;;;;2246277;61;2015;-89
2022/01/18 12:13:42;235950.00;0.79;407.78;0.00;0.00;0.62;;;;;8.50;1.00;;;;;;2248261;61;1459;-89
2022/01/18 12:16:19;334742.00;1.12;577.64;0.00;0.00;0.62;;;;;8.40;1.00;;;;;;2248615;61;1128;-89
2022/01/18 12:18:53;636876.00;2.12;1097.94;0.00;0.00;0.62;;;;;8.60;1.00;;;;;;2248534;61;1163;-89
2022/01/18 12:21:24;807802.00;2.69;1394.73;0.00;0.00;0.62;;;;;8.50;1.00;;;;;;2248297;61;1121;-89
2022/01/18 12:23:52;631818.00;2.11;1089.19;0.00;0.00;0.62;;;;;8.90;1.00;;;;;;2248434;61;1295;-88
2022/01/18 12:26:38;343784.00;1.15;593.18;0.00;0.00;0.62;;;;;8.90;1.00;;;;;;2248601;61;1128;-89
2022/01/18 12:29:23;853054.00;2.84;1473.81;68242.00;0.23;118.72;;;;;8.80;1.00;;;;;;2248428;61;1916;-89
2022/01/18 12:34:51;352863.00;1.18;608.78;0.00;0.00;0.62;;;;;8.90;1.00;;;;;;2248456;61;1169;-89
2022/01/18 12:37:38;476118.00;1.59;820.72;14077.00;0.05;25.01;;;;;8.40;1.00;;;;;;2248414;61;1102;-89
2022/01/18 12:40:11;783699.00;2.61;1352.71;68371.00;0.23;118.95;;;;;8.50;1.00;;;;;;2248597;61;1040;-89
2022/01/18 12:45:32;383475.00;1.28;661.40;0.00;0.00;0.62;;;;;8.30;1.00;;;;;;2248586;61;760;-89
2022/01/18 12:48:02;669132.00;2.23;1153.75;0.00;0.00;0.62;;;;;8.30;1.00;;;;;;2248560;61;1322;-90
2022/01/18 12:50:32;669582.00;2.23;1154.53;22224.00;0.07;39.12;;;;;8.40;1.00;;;;;;2248305;61;1920;-90
2022/01/18 12:53:02;322773.00;1.08;557.06;0.00;0.00;0.62;;;;;8.60;1.00;;;;;;2248466;61;1336;-90
2022/01/18 12:55:32;557609.00;1.86;961.08;0.00;0.00;0.62;;;;;8.40;1.00;;;;;;2248329;61;1081;-89
2022/01/18 12:58:07;438021.00;1.46;755.18;0.00;0.00;0.62;;;;;8.80;1.00;;;;;;2248372;61;950;-89
2022/01/18 13:00:43;542909.00;1.81;935.74;0.00;0.00;0.62;;;;;8.80;1.00;;;;;;2248543;61;1073;-88
2022/01/18 13:03:16;383494.00;1.28;661.43;0.00;0.00;0.62;;;;;8.60;1.00;;;;;;2248137;61;1350;-89
2022/01/18 13:05:46;630932.00;2.10;1087.66;47857.00;0.16;83.48;;;;;8.40;1.00;;;;;;2248291;61;1062;-89
2022/01/18 13:08:15;1744434.00;5.81;3112.09;148651.00;0.50;257.48;;;;;8.10;1.00;;;;;;2248124;61;1609;-91
2022/01/18 13:10:43;510137.00;1.70;879.28;0.00;0.00;0.62;;;;;8.20;1.00;;;;;;2248200;61;2059;-90
2022/01/18 13:13:14;685137.00;2.28;1181.47;62546.00;0.21;108.88;;;;;8.50;1.00;;;;;;2248266;61;1262;-88
2022/01/18 13:15:52;469736.00;1.57;809.74;0.00;0.00;0.62;;;;;8.70;1.00;;;;;;2248297;61;1572;-89
2022/01/18 13:24:02;469601.00;1.57;809.50;0.00;0.00;0.62;;;;;9.10;1.00;;;;;;2248037;61;1450;-90
2022/01/18 13:26:32;590940.00;1.97;1018.58;10617.00;0.04;19.02;;;;;8.80;1.00;;;;;;2248382;61;1061;-90
2022/01/18 13:29:12;580163.00;1.93;999.98;0.00;0.00;0.62;;;;;8.50;1.00;;;;;;2248278;61;1088;-88
2022/01/18 13:31:42;594157.00;1.98;1024.13;64642.00;0.22;112.50;;;;;8.50;1.00;;;;;;2248261;61;1152;-90
2022/01/18 13:34:11;451606.00;1.51;778.54;0.00;0.00;0.62;;;;;8.50;1.00;;;;;;2248096;61;1464;-90
2022/01/18 13:36:55;325364.00;1.08;561.52;0.00;0.00;0.62;;;;;8.80;1.00;;;;;;2248253;61;1731;-91
2022/01/18 13:39:27;660098.00;2.20;1138.11;0.00;0.00;0.62;;;;;8.70;1.00;;;;;;2248095;61;1204;-90
2022/01/18 13:41:55;425148.00;1.42;733.04;0.00;0.00;0.62;;;;;8.70;1.00;;;;;;2248144;61;1586;-90
2022/01/18 13:44:23;418740.00;1.40;722.02;0.00;0.00;0.62;;;;;8.10;1.00;;;;;;2248248;61;1380;-90
2022/01/18 13:46:50;695807.00;2.32;1199.97;0.00;0.00;0.62;;;;;8.00;1.00;;;;;;2248115;61;1135;-88
2022/01/18 13:49:22;308376.00;1.03;532.32;0.00;0.00;0.62;;;;;8.10;1.00;;;;;;2248112;61;1914;-90
2022/01/18 13:52:03;121898032.00;406.33;73377568.00;0.00;0.00;0.62;;;;;8.40;1.00;;;;;;2248184;61;1123;-90
2022/01/18 13:54:53;618202.00;2.06;1065.66;42477.00;0.14;74.17;;;;;8.50;1.00;;;;;;2248114;61;1265;-90
2022/01/18 13:57:22;921195.00;3.07;1593.38;69043.00;0.23;120.11;;;;;8.20;1.00;;;;;;2248098;61;1136;-88
2022/01/18 13:59:53;488049.00;1.63;841.25;72645.00;0.24;126.33;;;;;8.00;1.00;;;;;;2248144;61;1096;-87
2022/01/18 14:02:21;479606.00;1.60;826.72;9766.00;0.03;17.54;;;;;7.90;1.00;;;;;;2248105;61;1388;-89
2022/01/18 14:05:07;745638.00;2.49;1286.47;82097.00;0.27;142.66;;;;;7.80;1.00;;;;;;2247944;61;1125;-90
2022/01/18 14:07:35;751122.00;2.50;1296.01;0.00;0.00;0.62;;;;;7.80;1.00;;;;;;2248172;61;1113;-89
2022/01/18 14:10:04;648786.00;2.16;1118.54;9183.00;0.03;16.53;;;;;7.80;1.00;;;;;;2248274;61;1990;-90
2022/01/18 14:12:32;571974.00;1.91;985.85;0.00;0.00;0.62;;;;;8.10;1.00;;;;;;2248095;61;1290;-90
2022/01/18 14:15:01;579746.00;1.93;999.26;0.00;0.00;0.62;;;;;8.30;1.00;;;;;;2248126;61;1598;-89
2022/01/18 14:17:28;424800.00;1.42;732.44;0.00;0.00;0.62;;;;;8.20;1.00;;;;;;2248199;61;1015;-89
2022/01/18 14:20:04;117955808.00;393.19;66480160.00;0.00;0.00;0.62;;;;;7.80;1.00;;;;;;2248078;61;931;-88
2022/01/18 14:22:36;652680.00;2.18;1125.27;447.00;0.00;1.39;;;;;7.60;1.00;;;;;;2248036;61;1385;-90
2022/01/18 14:25:07;468622.00;1.56;807.82;0.00;0.00;0.62;;;;;7.70;1.00;;;;;;2248196;61;1634;-89
2022/01/18 14:27:37;631270.00;2.10;1088.24;45905.00;0.15;80.10;;;;;7.40;1.00;;;;;;2247944;61;1746;-90
2022/01/18 14:30:08;205587.00;0.69;355.54;0.00;0.00;0.62;;;;;7.50;1.00;;;;;;2248002;61;1919;-89
2022/01/18 14:32:37;842644.00;2.81;1455.60;10234.00;0.03;18.35;;;;;7.60;1.00;;;;;;2248136;61;1291;-88
2022/01/18 14:35:07;250415.00;0.83;432.66;0.00;0.00;0.62;;;;;7.70;1.00;;;;;;2248004;61;1022;-90
2022/01/18 14:37:37;868561.00;2.90;1500.97;14621.00;0.05;25.95;;;;;7.50;1.00;;;;;;2247965;61;949;-90
2022/01/18 14:40:08;347303.00;1.16;599.23;0.00;0.00;0.62;;;;;7.40;1.00;;;;;;2248212;61;1056;-89
2022/01/18 14:42:44;675372.00;2.25;1164.56;0.00;0.00;0.62;;;;;7.50;1.00;;;;;;2247962;61;1458;-89
2022/01/18 14:48:02;430093.00;1.43;741.55;0.00;0.00;0.62;;;;;7.40;1.00;;;;;;2247395;61;1320;-88
2022/01/18 14:50:30;997842.00;3.33;1728.65;0.00;0.00;0.62;;;;;7.60;1.00;;;;;;2247997;61;1912;-88
2022/01/18 14:52:57;868200.00;2.89;1500.34;68375.00;0.23;118.95;;;;;7.80;1.00;;;;;;2247920;61;1325;-89
2022/01/18 14:55:27;939877.00;3.13;1626.27;81820.00;0.27;142.18;;;;;7.80;1.00;;;;;;2247938;61;1591;-90
2022/01/18 14:57:55;837517.00;2.79;1446.63;0.00;0.00;0.62;;;;;7.70;1.00;;;;;;2248050;61;1142;-89
2022/01/18 15:00:24;932702.00;3.11;1613.63;63791.00;0.21;111.03;;;;;7.60;1.00;;;;;;2247802;61;1023;-89
2022/01/18 15:02:53;342201.00;1.14;590.46;0.00;0.00;0.62;;;;;7.40;1.00;;;;;;2247992;61;1345;-90
2022/01/18 15:05:21;446367.00;1.49;769.53;0.00;0.00;0.62;;;;;7.60;1.00;;;;;;2248141;61;998;-89
2022/01/18 15:07:49;916124.00;3.05;1584.46;76004.00;0.25;132.13;;;;;7.50;1.00;;;;;;2247867;61;810;-89
2022/01/18 15:10:17;559734.00;1.87;964.74;18273.00;0.06;32.28;;;;;7.60;1.00;;;;;;2247939;61;1989;-88
2022/01/18 15:12:45;423591.00;1.41;730.36;0.00;0.00;0.62;;;;;7.60;1.00;;;;;;2247961;61;1375;-89
2022/01/18 15:15:15;904845.00;3.02;1564.63;108132.00;0.36;187.61;;;;;7.30;1.00;;;;;;2247805;61;1565;-90
2022/01/18 15:17:44;451430.00;1.50;778.24;0.00;0.00;0.62;;;;;7.10;1.00;;;;;;2247803;61;1551;-90
2022/01/18 15:20:12;340165.00;1.13;586.96;0.00;0.00;0.62;;;;;7.50;1.00;;;;;;2247988;61;767;-90
2022/01/18 15:22:40;661781.00;2.21;1141.02;0.00;0.00;0.62;;;;;7.70;1.00;;;;;;2248003;61;1196;-90
2022/01/18 15:25:08;642296.00;2.14;1107.31;0.00;0.00;0.62;;;;;7.60;1.00;;;;;;2248047;61;1052;-90
2022/01/18 15:27:36;418123.00;1.39;720.96;0.00;0.00;0.62;;;;;7.20;1.00;;;;;;2247924;61;1693;-90
2022/01/18 15:30:07;638542.00;2.13;1100.82;0.00;0.00;0.62;;;;;7.40;1.00;;;;;;2247899;61;1920;-89
2022/01/18 15:32:35;712964.00;2.38;1229.73;0.00;0.00;0.62;;;;;7.30;1.00;;;;;;2247896;61;1315;-88
2022/01/18 15:35:03;331187.00;1.10;571.53;0.00;0.00;0.62;;;;;7.20;1.00;;;;;;2247918;61;1016;-89
2022/01/18 15:37:30;1067153.00;3.56;1851.78;22258.00;0.07;39.18;;;;;7.20;1.00;;;;;;2247699;61;914;-89
2022/01/18 15:40:01;516954.00;1.72;891.02;0.00;0.00;0.62;;;;;7.10;1.00;;;;;;2247647;61;1064;-90
2022/01/18 15:42:28;740877.00;2.47;1278.20;17846.00;0.06;31.54;;;;;7.10;1.00;;;;;;2247865;61;1331;-89
2022/01/18 15:44:55;973430.00;3.24;1685.47;0.00;0.00;0.62;;;;;7.10;1.00;;;;;;2247651;61;1547;-88
2022/01/18 15:47:22;362476.00;1.21;625.30;0.00;0.00;0.62;;;;;7.20;1.00;;;;;;2247710;61;899;-90
2022/01/18 15:49:49;433006.00;1.44;746.55;0.00;0.00;0.62;;;;;7.20;1.00;;;;;;2247287;61;1109;-90
2022/01/18 15:52:18;453057.00;1.51;781.04;0.00;0.00;0.62;;;;;7.00;1.00;;;;;;2248417;61;1553;-90
2022/01/18 15:54:45;642030.00;2.14;1106.85;19506.00;0.07;34.41;;;;;6.80;1.00;;;;;;2248307;61;1613;-90
2022/01/18 15:57:12;479611.00;1.60;826.73;0.00;0.00;0.62;;;;;7.00;1.00;;;;;;2248617;61;1558;-90
2022/01/18 15:59:41;798988.00;2.66;1379.36;0.00;0.00;0.62;;;;;7.30;1.00;;;;;;2248355;61;1108;-91
2022/01/18 16:02:08;528591.00;1.76;911.06;19314.00;0.06;34.08;;;;;7.20;1.00;;;;;;2248444;61;1100;-89
2022/01/18 16:04:35;350964.00;1.17;605.52;0.00;0.00;0.62;;;;;6.90;1.00;;;;;;2248614;61;981;-90
2022/01/18 16:07:05;720656.00;2.40;1243.08;0.00;0.00;0.62;;;;;7.20;1.00;;;;;;2248522;61;878;-89
2022/01/18 16:09:34;440123.00;1.47;758.79;0.00;0.00;0.62;;;;;7.20;1.00;;;;;;2248423;61;1056;-89
2022/01/18 16:12:01;604037.00;2.01;1041.19;9489.00;0.03;17.06;;;;;7.10;1.00;;;;;;2248538;61;2014;-89
2022/01/18 16:14:29;699363.00;2.33;1206.13;0.00;0.00;0.62;;;;;7.20;1.00;;;;;;2248368;61;1313;-90
2022/01/18 16:16:55;117542664.00;391.81;65783432.00;18124.00;0.06;32.02;;;;;7.20;1.00;;;;;;2248399;61;1180;-90
2022/01/18 16:19:27;117673936.00;392.25;66004292.00;746.00;0.00;1.91;;;;;7.10;1.00;;;;;;2248596;61;1020;-90
2022/01/18 16:21:55;481237.00;1.60;829.53;0.00;0.00;0.62;;;;;7.10;1.00;;;;;;2248311;61;988;-89
2022/01/18 16:24:22;736864.00;2.46;1271.23;0.00;0.00;0.62;;;;;7.10;1.00;;;;;;2248414;61;1372;-90
2022/01/18 16:26:52;475520.00;1.59;819.69;0.00;0.00;0.62;;;;;7.20;1.00;;;;;;2247070;61;1064;-89
2022/01/18 16:29:19;784293.00;2.61;1353.74;116205.00;0.39;201.54;;;;;7.10;1.00;;;;;;2248133;61;1643;-90
2022/01/18 16:31:46;550008.00;1.83;947.97;0.00;0.00;0.62;;;;;6.90;1.00;;;;;;2248203;61;2002;-89
2022/01/18 16:34:13;945205.00;3.15;1635.66;45264.00;0.15;78.99;;;;;6.90;1.00;;;;;;2248516;61;1311;-89
2022/01/18 16:36:40;261102.00;0.87;451.04;0.00;0.00;0.62;;;;;6.80;1.00;;;;;;2248358;61;1076;-88
2022/01/18 16:39:07;545987.00;1.82;941.04;0.00;0.00;0.62;;;;;6.70;1.00;;;;;;2248231;61;1120;-90
2022/01/18 16:41:34;806161.00;2.69;1391.87;7834.00;0.03;14.20;;;;;6.80;1.00;;;;;;2248536;61;1149;-87
2022/01/18 16:44:02;753545.00;2.51;1300.22;32771.00;0.11;57.38;;;;;6.90;1.00;;;;;;2248244;61;1255;-89
2022/01/18 16:46:29;634806.00;2.12;1094.36;0.00;0.00;0.62;;;;;7.10;1.00;;;;;;2248234;61;1084;-89
2022/01/18 16:48:56;383543.00;1.28;661.52;0.00;0.00;0.62;;;;;7.70;1.00;;;;;;2248472;61;1031;-88
2022/01/18 16:51:24;533144.00;1.78;918.91;0.00;0.00;0.62;;;;;8.20;1.00;;;;;;2248184;61;2023;-88
2022/01/18 16:53:51;563920.00;1.88;971.96;0.00;0.00;0.62;;;;;8.40;1.00;;;;;;2248152;61;1252;-88
2022/01/18 16:56:18;608063.00;2.03;1048.14;33317.00;0.11;58.32;;;;;7.80;1.00;;;;;;2248473;61;1136;-89
2022/01/18 16:58:50;521333.00;1.74;898.56;0.00;0.00;0.62;;;;;7.40;1.00;;;;;;2248202;61;1797;-88
2022/01/18 17:01:20;394347.00;1.31;680.09;0.00;0.00;0.62;;;;;7.70;1.00;;;;;;2248256;61;1263;-89
2022/01/18 17:03:47;583382.00;1.94;1005.53;28755.00;0.10;50.43;;;;;8.20;1.00;;;;;;2248470;61;1305;-89
2022/01/18 17:06:15;501062.00;1.67;863.65;0.00;0.00;0.62;;;;;8.60;1.00;;;;;;2248222;61;1100;-89
2022/01/18 17:08:43;463124.00;1.54;798.36;0.00;0.00;0.62;;;;;8.70;1.00;;;;;;2248212;61;1078;-89
2022/01/18 17:11:12;643764.00;2.15;1109.85;8896.00;0.03;16.04;;;;;8.20;1.00;;;;;;2248365;61;1920;-88
2022/01/18 17:13:39;300251.00;1.00;518.35;0.00;0.00;0.62;;;;;7.90;1.00;;;;;;2248358;61;1723;-90
2022/01/18 17:16:07;277092.00;0.92;478.54;0.00;0.00;0.62;;;;;7.60;1.00;;;;;;2248192;61;1699;-89
2022/01/18 17:18:35;575198.00;1.92;991.41;0.00;0.00;0.62;;;;;7.50;1.00;;;;;;2248326;61;1637;-90
2022/01/18 17:21:02;489889.00;1.63;844.42;0.00;0.00;0.62;;;;;7.40;1.00;;;;;;2248152;61;986;-90
2022/01/18 17:23:29;673264.00;2.24;1160.91;23490.00;0.08;41.31;;;;;7.20;1.00;;;;;;2248109;61;1301;-90
2022/01/18 17:25:57;555889.00;1.85;958.11;0.00;0.00;0.62;;;;;7.20;1.00;;;;;;2248428;61;1000;-90
2022/01/18 17:28:24;323948.00;1.08;559.08;0.00;0.00;0.62;;;;;7.50;1.00;;;;;;2248279;61;926;-90
2022/01/18 17:30:51;397101.00;1.32;684.82;0.00;0.00;0.62;;;;;7.80;1.00;;;;;;2248200;61;1920;-88
2022/01/18 17:33:19;524630.00;1.75;904.24;0.00;0.00;0.62;;;;;7.90;1.00;;;;;;2248275;61;1603;-89
2022/01/18 17:35:48;901272.00;3.00;1558.35;70837.00;0.24;123.21;;;;;8.00;1.00;;;;;;2248206;61;1263;-90
2022/01/18 17:38:15;119747952.00;399.16;69559448.00;0.00;0.00;0.62;;;;;8.50;1.00;;;;;;2248030;61;1673;-90
2022/01/18 17:40:44;672258.00;2.24;1159.16;30590.00;0.10;53.60;;;;;8.80;1.00;;;;;;2248474;61;1057;-89
2022/01/18 17:43:13;265557.00;0.89;458.70;0.00;0.00;0.62;;;;;9.00;1.00;;;;;;2248121;61;1322;-88
2022/01/18 17:45:40;488903.00;1.63;842.72;0.00;0.00;0.62;;;;;9.20;1.00;;;;;;2248093;61;1592;-89
2022/01/18 17:48:08;415866.00;1.39;717.08;0.00;0.00;0.62;;;;;9.30;1.00;;;;;;2248331;61;1788;-88
2022/01/18 17:50:35;731643.00;2.44;1262.16;15399.00;0.05;27.30;;;;;9.00;1.00;;;;;;2248024;61;1914;-88
2022/01/18 17:53:05;276680.00;0.92;477.83;0.00;0.00;0.62;;;;;8.80;1.00;;;;;;2248109;61;1401;-88
2022/01/18 17:55:33;582419.00;1.94;1003.87;0.00;0.00;0.62;;;;;8.40;1.00;;;;;;2248290;61;1258;-88
2022/01/18 17:58:00;443299.00;1.48;764.26;0.00;0.00;0.62;;;;;8.30;1.00;;;;;;2248174;61;1000;-89
2022/01/18 18:00:27;662648.00;2.21;1142.52;40903.00;0.14;71.45;;;;;8.40;1.00;;;;;;2248247;61;998;-90
2022/01/18 18:02:54;588175.00;1.96;1013.81;11721.00;0.04;20.93;;;;;8.30;1.00;;;;;;2248179;61;1295;-89
2022/01/18 18:05:32;;;;;;;;;;;;;;;;;;;;;
2022/01/18 18:28:39;692165.00;2.31;1193.65;0.00;0.00;0.62;;;;;9.20;1.00;;;;;;2249978;61;1296;-87
2022/01/18 18:31:06;353667.00;1.18;610.16;0.00;0.00;0.62;;;;;9.00;1.00;;;;;;2247959;61;1991;-88
2022/01/18 18:33:36;328336.00;1.09;566.63;444.00;0.00;1.39;;;;;9.00;1.00;;;;;;2247997;61;1409;-88
2022/01/18 18:36:03;549696.00;1.83;947.44;0.00;0.00;0.62;;;;;9.00;1.00;;;;;;2247958;61;1261;-87
2022/01/18 18:38:38;642970.00;2.14;1108.48;0.00;0.00;0.62;;;;;9.20;1.00;;;;;;2247882;61;1069;-88